createdAt,value
2022-09-01T00:00:49.376Z,97311.25
2022-09-01T00:04:47.734Z,97311.75
2022-09-01T00:08:44.864Z,97299.91
2022-09-01T00:12:42.141Z,97316.63
2022-09-01T00:16:39.635Z,97287.16
2022-09-01T00:20:36.738Z,97294.72
2022-09-01T00:24:33.813Z,97309.72
2022-09-01T00:28:34.488Z,97303.03
2022-09-01T00:32:31.492Z,97294.78
2022-09-01T00:36:28.626Z,97301.13
2022-09-01T00:40:26.071Z,97270.13
2022-09-01T00:44:29.796Z,97283.25
2022-09-01T00:48:28.414Z,97295.28
2022-09-01T00:52:38.798Z,97288.59
2022-09-01T00:56:40.722Z,97287.22
2022-09-01T01:00:46.792Z,97276.53
2022-09-01T01:04:44.149Z,97289.38
2022-09-01T01:08:56.915Z,97276.53
2022-09-01T01:12:54.123Z,97281.38
2022-09-01T01:16:56.369Z,97305.53
2022-09-01T01:21:29.257Z,97289.94
2022-09-01T01:25:27.252Z,97279.78
2022-09-01T01:29:25.113Z,97263.69
2022-09-01T01:33:29.959Z,97303.38
2022-09-01T01:37:27.658Z,97300.13
2022-09-01T01:41:24.853Z,97283.53
2022-09-01T01:45:25.496Z,97262.06
2022-09-01T01:49:29.222Z,97300.16
2022-09-01T01:53:26.382Z,97284.59
2022-09-01T01:57:23.474Z,97301.75
2022-09-01T02:01:25.509Z,97299.88
2022-09-01T02:05:33.253Z,97283.53
2022-09-01T02:09:30.283Z,97278.69
2022-09-01T02:13:31.423Z,97303.31
2022-09-01T02:17:29.118Z,97267.34
2022-09-01T02:21:28.629Z,97278.66
2022-09-01T02:25:27.612Z,97284.03
2022-09-01T02:29:26.643Z,97266.28
2022-09-01T02:33:25.457Z,97268.16
2022-09-01T02:37:25.550Z,97271.97
2022-09-01T02:41:23.976Z,97277.09
2022-09-01T02:45:22.230Z,97267.91
2022-09-01T02:49:25.923Z,97257.69
2022-09-01T02:53:23.519Z,97278.41
2022-09-01T02:57:24.551Z,97269.03
2022-09-01T03:01:31.485Z,97269.97
2022-09-01T03:05:32.662Z,97250.09
2022-09-01T03:09:30.210Z,97255.94
2022-09-01T03:13:29.270Z,97266.59
2022-09-01T03:17:27.151Z,97270.19
2022-09-01T03:21:24.265Z,97277.63
2022-09-01T03:25:25.165Z,97258.56
2022-09-01T03:29:23.030Z,97254.75
2022-09-01T03:33:22.887Z,97273.72
2022-09-01T03:37:21.034Z,97252.41
2022-09-01T03:41:22.753Z,97273.88
2022-09-01T03:45:20.745Z,97262.81
2022-09-01T03:49:27.911Z,97259.28
2022-09-01T03:53:28.006Z,97261.53
2022-09-01T03:57:29.116Z,97235.72
2022-09-01T04:01:39.845Z,97262.56
2022-09-01T04:05:44.461Z,97255.03
2022-09-01T04:09:42.552Z,97282.22
2022-09-01T04:13:42.782Z,97245.50
2022-09-01T04:17:59.898Z,97280.50
2022-09-01T04:22:00.795Z,97263.84
2022-09-01T04:26:14.720Z,97268.44
2022-09-01T04:30:14.699Z,97248.94
2022-09-01T04:34:16.409Z,97257.78
2022-09-01T04:38:16.191Z,97263.97
2022-09-01T04:42:16.364Z,97292.75
2022-09-01T04:46:21.257Z,97249.44
2022-09-01T04:50:18.999Z,97281.22
2022-09-01T04:54:38.982Z,97263.66
2022-09-01T04:58:38.637Z,97268.69
2022-09-01T05:02:35.620Z,97261.75
2022-09-01T05:06:34.024Z,97291.94
2022-09-01T05:10:34.744Z,97286.75
2022-09-01T05:14:48.815Z,97273.66
2022-09-01T05:18:50.644Z,97267.81
2022-09-01T05:22:47.995Z,97269.38
2022-09-01T05:26:47.562Z,97279.09
2022-09-01T05:30:48.498Z,97301.06
2022-09-01T05:34:46.236Z,97290.16
2022-09-01T05:38:45.543Z,97287.16
2022-09-01T05:42:44.488Z,97302.47
2022-09-01T05:46:42.701Z,97289.22
2022-09-01T05:50:43.017Z,97287.47
2022-09-01T05:54:41.491Z,97292.13
2022-09-01T06:02:58.213Z,97281.63
2022-09-01T06:07:07.187Z,97293.50
2022-09-01T06:11:12.656Z,97292.91
2022-09-01T06:15:18.389Z,97290.91
2022-09-01T06:19:21.088Z,97278.94
2022-09-01T06:23:18.754Z,97291.03
2022-09-01T06:27:18.302Z,97271.72
2022-09-01T06:31:15.572Z,97286.22
2022-09-01T06:35:18.341Z,97317.84
2022-09-01T06:39:22.497Z,97297.47
2022-09-01T06:43:23.453Z,97306.28
2022-09-01T06:47:21.327Z,97322.69
2022-09-01T06:51:22.745Z,97305.22
2022-09-01T06:55:23.148Z,97300.13
2022-09-01T06:59:21.050Z,97329.91
2022-09-01T07:03:19.640Z,97305.53
2022-09-01T07:12:27.690Z,97320.00
2022-09-01T07:16:34.626Z,97303.38
2022-09-01T07:21:03.073Z,97331.28
2022-09-01T07:29:39.555Z,97331.72
2022-09-01T07:33:41.984Z,97314.03
2022-09-01T07:46:38.467Z,97313.66
2022-09-01T07:55:05.870Z,97322.13
2022-09-01T07:59:03.248Z,97321.59
2022-09-01T08:03:01.427Z,97331.53
2022-09-01T08:06:58.666Z,97329.94
2022-09-01T08:11:05.628Z,97317.44
2022-09-01T08:15:41.527Z,97315.41
2022-09-01T08:19:25.452Z,97334.06
2022-09-01T08:23:49.076Z,97319.47
2022-09-01T08:27:46.970Z,97327.19
2022-09-01T08:31:46.953Z,97307.66
2022-09-01T08:35:49.079Z,97330.94
2022-09-01T08:39:48.501Z,97321.47
2022-09-01T08:44:16.731Z,97337.41
2022-09-01T08:53:42.674Z,97337.06
2022-09-01T08:57:45.319Z,97335.88
2022-09-01T09:01:55.911Z,97331.69
2022-09-01T09:06:13.730Z,97339.25
2022-09-01T09:10:37.438Z,97328.75
2022-09-01T09:14:52.793Z,97334.19
2022-09-01T09:19:06.605Z,97340.28
2022-09-01T09:23:22.020Z,97321.34
2022-09-01T09:27:32.131Z,97330.38
2022-09-01T09:31:45.824Z,97342.22
2022-09-01T09:35:47.349Z,97327.16
2022-09-01T09:39:44.788Z,97329.41
2022-09-01T09:44:00.209Z,97339.53
2022-09-01T09:47:58.464Z,97345.38
2022-09-01T09:52:16.443Z,97326.63
2022-09-01T09:56:24.351Z,97333.19
2022-09-01T10:00:29.096Z,97312.72
2022-09-01T10:04:39.067Z,97330.47
2022-09-01T10:08:45.719Z,97332.31
2022-09-01T10:12:43.026Z,97333.50
2022-09-01T10:16:42.913Z,97318.78
2022-09-01T10:21:26.084Z,97329.38
2022-09-01T10:25:32.240Z,97317.63
2022-09-01T10:29:50.583Z,97297.78
2022-09-01T10:33:49.634Z,97336.47
2022-09-01T10:37:50.471Z,97317.25
2022-09-01T10:41:59.715Z,97302.84
2022-09-01T10:46:05.342Z,97336.88
2022-09-01T10:50:24.615Z,97334.41
2022-09-01T10:54:50.787Z,97333.81
2022-09-01T11:03:42.134Z,97325.38
2022-09-01T11:08:09.061Z,97316.69
2022-09-01T11:12:29.844Z,97331.44
2022-09-01T11:16:50.121Z,97308.63
2022-09-01T11:20:47.734Z,97330.69
2022-09-01T11:25:00.187Z,97324.72
2022-09-01T11:28:59.581Z,97303.78
2022-09-01T11:33:24.173Z,97305.81
2022-09-01T11:37:27.610Z,97289.03
2022-09-01T11:41:46.474Z,97300.00
2022-09-01T11:46:22.675Z,97296.25
2022-09-01T11:50:27.036Z,97266.66
2022-09-01T11:54:25.556Z,97261.41
2022-09-01T11:58:29.079Z,97282.31
2022-09-01T12:02:36.697Z,97283.03
2022-09-01T12:06:35.061Z,97288.69
2022-09-01T12:10:38.546Z,97263.59
2022-09-01T12:15:01.929Z,97271.59
2022-09-01T12:18:56.724Z,97279.72
2022-09-01T12:22:54.091Z,97266.34
2022-09-01T12:26:55.899Z,97277.97
2022-09-01T12:30:55.546Z,97268.22
2022-09-01T12:35:13.687Z,97264.78
2022-09-01T12:39:25.085Z,97268.03
2022-09-01T12:43:39.947Z,97264.34
2022-09-01T12:47:37.159Z,97265.03
2022-09-01T12:51:35.358Z,97267.91
2022-09-01T12:55:52.058Z,97270.31
2022-09-01T12:59:49.128Z,97236.44
2022-09-01T13:04:16.157Z,97273.38
2022-09-01T13:08:18.465Z,97265.50
2022-09-01T13:12:21.698Z,97252.31
2022-09-01T13:16:18.779Z,97254.78
2022-09-01T13:20:16.612Z,97256.34
2022-09-01T13:24:14.679Z,97259.75
2022-09-01T13:28:13.698Z,97242.50
2022-09-01T13:32:19.635Z,97249.47
2022-09-01T13:40:35.160Z,97240.16
2022-09-01T13:44:32.188Z,97242.75
2022-09-01T13:49:02.320Z,97253.53
2022-09-01T13:52:55.164Z,97242.25
2022-09-01T13:56:52.477Z,97228.59
2022-09-01T14:00:51.044Z,97247.63
2022-09-01T14:04:48.284Z,97224.91
2022-09-01T14:08:45.353Z,97228.16
2022-09-01T14:12:43.251Z,97246.59
2022-09-01T14:16:40.417Z,97220.66
2022-09-01T14:20:42.511Z,97244.81
2022-09-01T14:24:40.935Z,97226.19
2022-09-01T14:28:40.088Z,97227.28
2022-09-01T14:32:37.205Z,97235.44
2022-09-01T14:36:34.888Z,97223.19
2022-09-01T14:40:32.009Z,97213.59
2022-09-01T14:44:29.146Z,97220.72
2022-09-01T14:48:26.103Z,97210.47
2022-09-01T14:52:23.100Z,97186.53
2022-09-01T14:56:21.756Z,97214.09
2022-09-01T15:00:20.010Z,97207.84
2022-09-01T15:04:17.136Z,97187.25
2022-09-01T15:08:17.855Z,97191.00
2022-09-01T15:12:15.019Z,97186.91
2022-09-01T15:16:25.599Z,97204.75
2022-09-01T15:20:42.622Z,97201.81
2022-09-01T15:24:39.723Z,97191.16
2022-09-01T15:28:36.831Z,97185.97
2022-09-01T15:32:33.959Z,97193.50
2022-09-01T15:36:35.579Z,97193.16
2022-09-01T15:40:33.548Z,97193.34
2022-09-01T15:44:31.203Z,97175.22
2022-09-01T15:48:29.818Z,97179.13
2022-09-01T15:52:28.400Z,97174.94
2022-09-01T15:56:26.120Z,97179.31
2022-09-01T16:00:29.735Z,97185.13
2022-09-01T16:04:27.894Z,97165.81
2022-09-01T16:08:25.166Z,97162.69
2022-09-01T16:12:22.247Z,97170.72
2022-09-01T16:16:51.993Z,97195.22
2022-09-01T16:21:35.439Z,97195.69
2022-09-01T16:25:34.773Z,97165.03
2022-09-01T16:30:04.307Z,97194.53
2022-09-01T16:34:13.184Z,97195.88
2022-09-01T16:38:40.351Z,97168.66
2022-09-01T16:42:58.000Z,97168.84
2022-09-01T16:47:16.532Z,97185.16
2022-09-01T16:51:52.869Z,97184.16
2022-09-01T16:56:01.734Z,97188.78
2022-09-01T17:00:08.489Z,97154.44
2022-09-01T17:04:12.073Z,97192.13
2022-09-01T17:08:23.345Z,97177.50
2022-09-01T17:12:33.384Z,97190.28
2022-09-01T17:16:38.150Z,97190.03
2022-09-01T17:20:41.166Z,97190.19
2022-09-01T17:24:56.908Z,97181.22
2022-09-01T17:29:13.241Z,97170.84
2022-09-01T17:33:17.272Z,97202.44
2022-09-01T17:37:32.786Z,97209.75
2022-09-01T17:41:52.905Z,97218.97
2022-09-01T17:46:20.875Z,97214.91
2022-09-01T17:51:01.161Z,97213.25
2022-09-01T17:55:28.199Z,97224.00
2022-09-01T18:00:05.108Z,97221.06
2022-09-01T18:04:42.339Z,97226.25
2022-09-01T18:08:47.971Z,97240.84
2022-09-01T18:12:52.462Z,97209.03
2022-09-01T18:16:49.476Z,97233.91
2022-09-01T18:20:49.594Z,97243.16
2022-09-01T18:25:03.947Z,97238.78
2022-09-01T18:29:05.220Z,97245.53
2022-09-01T18:34:03.416Z,97236.09
2022-09-01T18:38:20.812Z,97244.94
2022-09-01T18:42:49.094Z,97225.47
2022-09-01T18:47:09.628Z,97250.69
2022-09-01T18:51:16.926Z,97262.88
2022-09-01T18:55:43.751Z,97265.09
2022-09-01T19:00:18.207Z,97271.78
2022-09-01T19:04:31.810Z,97276.34
2022-09-01T19:09:16.164Z,97275.91
2022-09-01T19:14:03.383Z,97276.47
2022-09-01T19:18:13.921Z,97259.88
2022-09-01T19:22:30.269Z,97250.47
2022-09-01T19:26:32.138Z,97284.03
2022-09-01T19:30:29.984Z,97242.22
2022-09-01T19:34:36.509Z,97291.00
2022-09-01T19:38:33.670Z,97271.19
2022-09-01T19:42:38.809Z,97298.53
2022-09-01T19:46:43.339Z,97298.78
2022-09-01T19:50:59.552Z,97296.91
2022-09-01T19:55:04.004Z,97273.25
2022-09-01T19:59:55.786Z,97290.44
2022-09-01T20:04:15.058Z,97249.66
2022-09-01T20:08:25.836Z,97275.38
2022-09-01T20:12:40.147Z,97303.25
2022-09-01T20:16:44.528Z,97293.25
2022-09-01T20:20:48.944Z,97300.50
2022-09-01T20:24:47.305Z,97288.63
2022-09-01T20:28:53.767Z,97272.44
2022-09-01T20:33:18.912Z,97293.41
2022-09-01T20:37:27.195Z,97291.69
2022-09-01T20:42:09.391Z,97297.84
2022-09-01T20:46:06.670Z,97282.19
2022-09-01T20:50:13.448Z,97271.47
2022-09-01T20:54:40.730Z,97296.53
2022-09-01T20:58:45.270Z,97277.06
2022-09-01T21:03:33.585Z,97276.34
2022-09-01T21:07:56.451Z,97294.84
2022-09-01T21:12:35.150Z,97276.34
2022-09-01T21:16:56.304Z,97276.88
2022-09-01T21:21:08.269Z,97304.69
2022-09-01T21:25:06.149Z,97299.56
2022-09-01T21:29:43.811Z,97304.88
2022-09-01T21:33:40.802Z,97293.69
2022-09-01T21:37:38.365Z,97295.59
2022-09-01T21:41:35.464Z,97293.56
2022-09-01T21:45:36.732Z,97288.84
2022-09-01T21:49:33.847Z,97280.22
2022-09-01T21:53:32.658Z,97300.13
2022-09-01T21:57:29.686Z,97291.81
2022-09-01T22:01:31.340Z,97277.63
2022-09-01T22:05:33.296Z,97292.16
2022-09-01T22:09:30.692Z,97264.84
2022-09-01T22:13:28.074Z,97288.13
2022-09-01T22:17:25.315Z,97273.44
2022-09-01T22:21:22.792Z,97288.34
2022-09-01T22:25:24.039Z,97255.72
2022-09-01T22:29:21.092Z,97237.72
2022-09-01T22:33:20.595Z,97288.28
2022-09-01T22:37:18.839Z,97264.50
2022-09-01T22:41:23.167Z,97279.91
2022-09-01T22:45:20.234Z,97283.88
2022-09-01T22:49:17.639Z,97269.19
2022-09-01T22:53:16.566Z,97294.97
2022-09-01T22:57:14.532Z,97269.06
2022-09-01T23:01:16.721Z,97282.13
2022-09-01T23:05:14.060Z,97285.19
2022-09-01T23:09:14.064Z,97301.53
2022-09-01T23:13:11.152Z,97277.31
2022-09-01T23:17:08.496Z,97262.94
2022-09-01T23:21:08.039Z,97294.97
2022-09-01T23:25:06.657Z,97277.16
2022-09-01T23:29:05.660Z,97283.78
2022-09-01T23:33:03.013Z,97237.44
2022-09-01T23:37:00.009Z,97272.38
2022-09-01T23:40:58.630Z,97266.00
2022-09-01T23:44:55.614Z,97275.03
2022-09-01T23:48:53.733Z,97270.69
2022-09-01T23:52:51.018Z,97236.47
2022-09-01T23:56:48.288Z,97243.88
